createdAt,value
2023-01-10T00:01:56.773Z,7.59
2023-01-10T00:04:26.831Z,7.39
2023-01-10T00:06:55.187Z,7.40
2023-01-10T00:09:24.643Z,7.43
2023-01-10T00:12:10.407Z,7.37
2023-01-10T00:14:38.760Z,7.43
2023-01-10T00:17:07.049Z,7.38
2023-01-10T00:19:35.039Z,7.46
2023-01-10T00:22:13.999Z,7.36
2023-01-10T00:24:44.247Z,7.41
2023-01-10T00:27:17.368Z,7.34
2023-01-10T00:29:45.415Z,7.43
2023-01-10T00:32:13.427Z,7.15
2023-01-10T00:34:41.845Z,7.22
2023-01-10T00:37:09.925Z,7.16
2023-01-10T00:39:38.069Z,7.22
2023-01-10T00:42:25.389Z,6.98
2023-01-10T00:44:53.262Z,7.10
2023-01-10T00:47:21.828Z,7.31
2023-01-10T00:49:49.926Z,7.28
2023-01-10T00:52:18.489Z,7.26
2023-01-10T00:54:46.377Z,7.33
2023-01-10T00:57:16.312Z,7.42
2023-01-10T00:59:44.572Z,7.37
2023-01-10T01:02:13.057Z,7.26
2023-01-10T01:04:41.591Z,7.36
2023-01-10T01:07:09.957Z,7.35
2023-01-10T01:09:58.565Z,7.35
2023-01-10T01:12:28.397Z,7.19
2023-01-10T01:14:56.382Z,7.27
2023-01-10T01:17:24.822Z,7.35
2023-01-10T01:19:52.941Z,7.38
2023-01-10T01:22:21.501Z,7.37
2023-01-10T01:24:49.576Z,7.36
2023-01-10T01:27:18.272Z,7.33
2023-01-10T01:29:47.564Z,7.21
2023-01-10T01:32:15.787Z,7.27
2023-01-10T01:34:43.814Z,7.01
2023-01-10T01:37:12.241Z,7.03
2023-01-10T01:39:40.636Z,7.18
2023-01-10T01:42:22.096Z,7.32
2023-01-10T01:47:48.680Z,7.16
2023-01-10T01:50:20.237Z,7.37
2023-01-10T01:52:50.574Z,7.23
2023-01-10T01:55:19.460Z,7.18
2023-01-10T01:57:49.292Z,7.17
2023-01-10T02:00:17.748Z,7.41
2023-01-10T02:03:02.057Z,7.42
2023-01-10T02:05:34.329Z,7.44
2023-01-10T02:08:03.569Z,7.52
2023-01-10T02:10:38.209Z,7.51
2023-01-10T02:13:09.743Z,7.61
2023-01-10T02:15:37.776Z,7.46
2023-01-10T02:18:07.915Z,7.64
2023-01-10T02:20:46.243Z,7.56
2023-01-10T02:23:58.796Z,7.60
2023-01-10T02:27:07.987Z,7.50
2023-01-10T02:30:17.459Z,7.44
2023-01-10T02:33:04.273Z,7.35
2023-01-10T02:35:50.348Z,7.08
2023-01-10T02:38:25.707Z,7.27
2023-01-10T02:41:02.805Z,7.25
2023-01-10T02:43:35.811Z,7.40
2023-01-10T02:46:08.151Z,7.28
2023-01-10T02:48:37.538Z,7.36
2023-01-10T02:51:14.297Z,7.33
2023-01-10T02:53:47.620Z,7.25
2023-01-10T02:56:51.016Z,7.20
2023-01-10T02:59:54.778Z,7.27
2023-01-10T03:02:58.208Z,7.25
2023-01-10T03:05:41.928Z,7.24
2023-01-10T03:08:25.028Z,7.25
2023-01-10T03:10:59.353Z,7.38
2023-01-10T03:13:31.833Z,7.39
2023-01-10T03:16:02.779Z,7.38
2023-01-10T03:18:34.831Z,7.31
2023-01-10T03:21:06.538Z,7.23
2023-01-10T03:23:36.257Z,7.43
2023-01-10T03:26:06.910Z,7.39
2023-01-10T03:28:42.517Z,7.58
2023-01-10T03:31:15.935Z,7.80
2023-01-10T03:33:44.665Z,7.66
2023-01-10T03:36:21.238Z,7.54
2023-01-10T03:38:53.788Z,7.57
2023-01-10T03:41:32.505Z,7.77
2023-01-10T03:44:26.116Z,7.56
2023-01-10T03:46:58.057Z,7.59
2023-01-10T03:49:27.884Z,7.53
2023-01-10T03:51:59.521Z,7.42
2023-01-10T03:54:27.864Z,7.57
2023-01-10T03:56:55.777Z,7.63
2023-01-10T03:59:27.056Z,7.55
2023-01-10T04:01:56.256Z,7.55
2023-01-10T04:04:24.700Z,7.66
2023-01-10T04:06:52.816Z,7.70
2023-01-10T04:09:22.185Z,7.82
2023-01-10T04:11:50.009Z,7.72
2023-01-10T04:14:17.910Z,7.31
2023-01-10T04:16:46.173Z,7.43
2023-01-10T04:19:14.461Z,7.41
2023-01-10T04:21:42.577Z,7.36
2023-01-10T04:24:11.479Z,7.39
2023-01-10T04:26:40.925Z,7.24
2023-01-10T04:29:09.169Z,7.34
2023-01-10T04:31:37.491Z,7.32
2023-01-10T04:34:05.840Z,7.12
2023-01-10T04:36:33.995Z,7.11
2023-01-10T04:39:02.202Z,7.28
2023-01-10T04:41:30.230Z,7.24
2023-01-10T04:44:00.213Z,7.29
2023-01-10T04:46:28.149Z,7.26
2023-01-10T04:48:56.138Z,7.35
2023-01-10T04:51:24.279Z,7.25
2023-01-10T04:53:52.736Z,7.31
2023-01-10T04:56:23.170Z,7.26
2023-01-10T04:58:53.866Z,7.25
2023-01-10T05:01:25.552Z,7.50
2023-01-10T05:03:55.804Z,7.50
2023-01-10T05:06:25.559Z,7.43
2023-01-10T05:08:53.708Z,7.48
2023-01-10T05:11:21.875Z,7.32
2023-01-10T05:13:49.964Z,7.41
2023-01-10T05:16:18.595Z,7.46
2023-01-10T05:18:48.391Z,7.24
2023-01-10T05:21:16.761Z,7.45
2023-01-10T05:23:44.871Z,7.16
2023-01-10T05:26:15.394Z,7.29
2023-01-10T05:28:43.931Z,7.28
2023-01-10T05:31:15.131Z,7.23
2023-01-10T05:33:47.760Z,7.36
2023-01-10T05:36:15.825Z,7.31
2023-01-10T05:38:43.850Z,7.41
2023-01-10T05:41:12.214Z,7.15
2023-01-10T05:43:40.009Z,7.29
2023-01-10T05:46:08.504Z,7.30
2023-01-10T05:48:36.776Z,7.41
2023-01-10T05:51:06.443Z,7.25
2023-01-10T05:53:34.350Z,7.39
2023-01-10T05:56:03.889Z,7.35
2023-01-10T05:58:32.031Z,7.47
2023-01-10T06:01:00.411Z,7.30
2023-01-10T06:03:28.543Z,7.35
2023-01-10T06:05:57.268Z,7.69
2023-01-10T06:08:26.705Z,7.54
2023-01-10T06:10:54.947Z,7.32
2023-01-10T06:13:23.260Z,7.32
2023-01-10T06:15:52.404Z,7.30
2023-01-10T06:18:20.475Z,7.55
2023-01-10T06:20:48.631Z,7.59
2023-01-10T06:23:17.104Z,7.49
2023-01-10T06:25:47.746Z,7.47
2023-01-10T06:28:16.772Z,7.63
2023-01-10T06:30:45.215Z,7.56
2023-01-10T06:33:14.404Z,7.38
2023-01-10T06:35:43.810Z,7.38
2023-01-10T06:38:12.565Z,7.48
2023-01-10T06:40:40.867Z,7.31
2023-01-10T06:43:10.835Z,7.18
2023-01-10T06:45:38.803Z,6.96
2023-01-10T06:48:07.976Z,6.84
2023-01-10T06:50:38.622Z,6.61
2023-01-10T06:53:07.568Z,6.58
2023-01-10T06:55:36.699Z,6.61
2023-01-10T06:58:08.319Z,6.56
2023-01-10T07:00:38.368Z,6.77
2023-01-10T07:03:06.685Z,6.71
2023-01-10T07:05:35.447Z,6.67
2023-01-10T07:08:04.884Z,6.93
2023-01-10T07:10:33.849Z,7.07
2023-01-10T07:13:03.503Z,7.24
2023-01-10T07:15:31.846Z,7.33
2023-01-10T07:18:01.884Z,7.28
2023-01-10T07:20:30.939Z,7.25
2023-01-10T07:23:01.069Z,7.21
2023-01-10T07:25:30.907Z,7.26
2023-01-10T07:27:59.513Z,7.19
2023-01-10T07:30:27.858Z,7.54
2023-01-10T07:33:01.972Z,7.35
2023-01-10T07:35:31.909Z,7.44
2023-01-10T07:38:00.981Z,7.30
2023-01-10T07:40:29.914Z,7.43
2023-01-10T07:42:58.499Z,7.43
2023-01-10T07:45:28.216Z,7.47
2023-01-10T07:47:58.556Z,7.66
2023-01-10T07:50:27.678Z,7.64
2023-01-10T07:52:57.412Z,7.71
2023-01-10T07:55:25.894Z,7.93
2023-01-10T07:57:54.239Z,7.66
2023-01-10T08:00:22.755Z,7.69
2023-01-10T08:02:55.367Z,7.73
2023-01-10T08:05:24.326Z,7.95
2023-01-10T08:07:53.875Z,8.17
2023-01-10T08:10:23.880Z,7.81
2023-01-10T08:12:52.560Z,8.05
2023-01-10T08:15:21.581Z,7.86
2023-01-10T08:17:50.423Z,7.75
2023-01-10T08:20:19.131Z,7.76
2023-01-10T08:22:47.583Z,7.94
2023-01-10T08:25:15.913Z,8.16
2023-01-10T08:27:45.978Z,7.91
2023-01-10T08:30:14.975Z,8.03
2023-01-10T08:32:43.514Z,7.80
2023-01-10T08:35:12.160Z,8.13
2023-01-10T08:37:40.649Z,8.02
2023-01-10T08:40:10.160Z,8.01
2023-01-10T08:42:38.843Z,8.22
2023-01-10T08:45:10.201Z,8.22
2023-01-10T08:47:38.770Z,8.15
2023-01-10T08:50:08.098Z,8.32
2023-01-10T08:52:36.665Z,8.29
2023-01-10T08:55:04.881Z,8.13
2023-01-10T08:57:33.061Z,7.77
2023-01-10T09:00:01.060Z,8.41
2023-01-10T09:02:31.036Z,8.06
2023-01-10T09:04:59.390Z,8.22
2023-01-10T09:07:28.627Z,8.52
2023-01-10T09:09:56.765Z,8.40
2023-01-10T09:12:38.994Z,8.28
2023-01-10T09:15:08.405Z,8.63
2023-01-10T09:17:38.440Z,8.51
2023-01-10T09:20:10.262Z,8.71
2023-01-10T09:22:38.869Z,8.94
2023-01-10T09:25:07.994Z,9.21
2023-01-10T09:27:36.187Z,8.85
2023-01-10T09:30:04.761Z,8.60
2023-01-10T09:32:35.133Z,8.91
2023-01-10T09:35:05.051Z,8.91
2023-01-10T09:37:34.920Z,8.80
2023-01-10T09:40:02.966Z,8.65
2023-01-10T09:42:51.086Z,8.76
2023-01-10T09:45:23.344Z,8.79
2023-01-10T09:47:57.109Z,8.79
2023-01-10T09:50:33.414Z,9.06
2023-01-10T09:53:10.100Z,8.94
2023-01-10T09:55:40.571Z,8.70
2023-01-10T09:58:13.629Z,9.18
2023-01-10T10:00:45.981Z,9.25
2023-01-10T10:03:25.784Z,9.09
2023-01-10T10:06:10.553Z,9.20
2023-01-10T10:08:41.039Z,9.49
2023-01-10T10:11:30.316Z,9.32
2023-01-10T10:14:08.512Z,9.42
2023-01-10T10:16:49.980Z,9.27
2023-01-10T10:19:25.461Z,9.30
2023-01-10T10:22:08.860Z,9.51
2023-01-10T10:24:51.067Z,9.32
2023-01-10T10:27:24.643Z,9.73
2023-01-10T10:30:10.073Z,10.20
2023-01-10T10:32:58.478Z,9.74
2023-01-10T10:35:31.111Z,9.67
2023-01-10T10:38:06.084Z,9.54
2023-01-10T10:40:38.751Z,9.79
2023-01-10T10:43:16.448Z,9.79
2023-01-10T10:45:48.676Z,9.47
2023-01-10T10:48:22.891Z,9.83
2023-01-10T10:51:02.358Z,9.58
2023-01-10T10:53:34.881Z,9.94
2023-01-10T10:56:05.730Z,10.02
2023-01-10T10:58:35.067Z,9.39
2023-01-10T11:01:03.613Z,9.29
2023-01-10T11:03:40.024Z,9.07
2023-01-10T11:06:10.440Z,8.88
2023-01-10T11:08:44.011Z,9.28
2023-01-10T11:11:20.988Z,8.91
2023-01-10T11:13:56.537Z,8.86
2023-01-10T11:16:28.303Z,9.03
2023-01-10T11:19:13.673Z,9.04
2023-01-10T11:21:43.649Z,9.28
2023-01-10T11:24:24.883Z,9.25
2023-01-10T11:26:54.167Z,8.95
2023-01-10T11:29:28.349Z,9.05
2023-01-10T11:31:58.512Z,9.61
2023-01-10T11:34:30.218Z,9.50
2023-01-10T11:37:01.715Z,9.74
2023-01-10T11:39:33.675Z,9.38
2023-01-10T11:42:29.561Z,9.54
2023-01-10T11:45:14.755Z,9.60
2023-01-10T11:47:46.456Z,9.60
2023-01-10T11:50:23.012Z,9.61
2023-01-10T11:52:52.227Z,9.73
2023-01-10T11:55:24.808Z,9.42
2023-01-10T11:58:02.910Z,9.28
2023-01-10T12:00:39.689Z,9.22
2023-01-10T12:03:21.627Z,9.04
2023-01-10T12:05:54.878Z,9.13
2023-01-10T12:08:29.786Z,9.28
2023-01-10T12:11:03.212Z,8.89
2023-01-10T12:13:44.158Z,8.84
2023-01-10T12:16:26.785Z,8.91
2023-01-10T12:18:57.832Z,9.06
2023-01-10T12:21:31.819Z,8.56
2023-01-10T12:24:05.433Z,8.82
2023-01-10T12:26:36.843Z,8.69
2023-01-10T12:29:12.133Z,8.85
2023-01-10T12:31:42.101Z,8.60
2023-01-10T12:34:20.683Z,8.33
2023-01-10T12:36:59.887Z,8.11
2023-01-10T12:39:34.337Z,8.24
2023-01-10T12:42:35.569Z,8.23
2023-01-10T12:45:11.618Z,8.19
2023-01-10T12:47:57.443Z,8.32
2023-01-10T12:50:32.621Z,8.18
2023-01-10T12:53:05.044Z,8.44
2023-01-10T12:55:40.872Z,8.56
2023-01-10T12:58:22.576Z,8.43
2023-01-10T13:00:55.264Z,8.62
2023-01-10T13:03:30.133Z,8.66
2023-01-10T13:06:00.290Z,9.05
2023-01-10T13:08:32.185Z,9.14
2023-01-10T13:11:02.196Z,9.18
2023-01-10T13:13:36.499Z,9.11
2023-01-10T13:16:21.208Z,8.06
2023-01-10T13:19:24.219Z,7.10
2023-01-10T13:22:13.336Z,6.96
2023-01-10T13:24:41.931Z,7.39
2023-01-10T13:27:21.265Z,7.49
2023-01-10T13:29:51.524Z,7.26
2023-01-10T13:32:25.193Z,7.49
2023-01-10T13:34:54.676Z,7.58
2023-01-10T13:37:27.650Z,7.25
2023-01-10T13:40:00.231Z,7.63
2023-01-10T13:42:50.904Z,7.45
2023-01-10T13:45:27.017Z,7.49
2023-01-10T13:48:01.294Z,7.30
2023-01-10T13:50:52.323Z,7.32
2023-01-10T13:53:47.372Z,7.52
2023-01-10T13:56:38.448Z,7.46
2023-01-10T13:59:31.060Z,7.57
2023-01-10T14:02:20.618Z,7.72
2023-01-10T14:04:54.051Z,7.73
2023-01-10T14:07:30.126Z,7.60
2023-01-10T14:10:05.010Z,7.49
2023-01-10T14:12:39.685Z,7.37
2023-01-10T14:15:22.449Z,7.48
2023-01-10T14:17:59.273Z,7.64
2023-01-10T14:20:28.832Z,7.85
2023-01-10T14:23:04.332Z,7.99
2023-01-10T14:25:35.293Z,7.60
2023-01-10T14:28:04.402Z,7.69
2023-01-10T14:30:38.505Z,7.85
2023-01-10T14:33:15.081Z,7.75
2023-01-10T14:35:48.838Z,7.72
2023-01-10T14:38:22.519Z,7.73
2023-01-10T14:40:54.073Z,7.64
2023-01-10T14:43:28.081Z,7.84
2023-01-10T14:46:04.590Z,7.83
2023-01-10T14:48:36.390Z,7.28
2023-01-10T14:51:21.407Z,7.40
2023-01-10T14:53:57.414Z,7.27
2023-01-10T14:56:28.165Z,7.20
2023-01-10T14:58:56.642Z,7.01
2023-01-10T15:01:28.323Z,7.00
2023-01-10T15:03:59.128Z,6.84
2023-01-10T15:06:27.608Z,7.03
2023-01-10T15:09:01.486Z,7.10
2023-01-10T15:11:33.712Z,7.14
2023-01-10T15:14:07.899Z,6.96
2023-01-10T15:16:37.087Z,7.07
2023-01-10T15:19:07.188Z,6.98
2023-01-10T15:21:35.281Z,6.98
2023-01-10T15:24:32.131Z,7.06
2023-01-10T15:27:03.596Z,6.92
2023-01-10T15:29:33.325Z,7.18
2023-01-10T15:32:10.247Z,7.04
2023-01-10T15:34:42.654Z,7.35
2023-01-10T15:37:23.291Z,7.40
2023-01-10T15:39:51.772Z,7.31
2023-01-10T15:42:22.862Z,7.37
2023-01-10T15:44:59.029Z,7.38
2023-01-10T15:47:39.265Z,7.26
2023-01-10T15:50:23.115Z,7.26
2023-01-10T15:52:53.494Z,7.22
2023-01-10T15:55:39.549Z,7.15
2023-01-10T15:58:14.960Z,7.26
2023-01-10T16:00:46.023Z,7.31
2023-01-10T16:03:25.335Z,7.32
2023-01-10T16:05:59.408Z,7.26
2023-01-10T16:08:29.826Z,7.36
2023-01-10T16:11:00.465Z,7.37
2023-01-10T16:13:28.267Z,7.31
2023-01-10T16:15:57.335Z,7.25
2023-01-10T16:18:27.388Z,7.04
2023-01-10T16:21:00.085Z,7.10
2023-01-10T16:23:31.679Z,7.01
2023-01-10T16:26:02.277Z,6.83
2023-01-10T16:28:35.932Z,6.82
2023-01-10T16:31:06.557Z,6.85
2023-01-10T16:33:36.963Z,6.62
2023-01-10T16:36:15.290Z,6.61
2023-01-10T16:38:44.348Z,6.65
2023-01-10T16:41:30.930Z,6.58
2023-01-10T16:43:59.334Z,6.38
2023-01-10T16:46:27.225Z,6.36
2023-01-10T16:48:55.563Z,6.44
2023-01-10T16:51:27.660Z,6.51
2023-01-10T16:53:59.257Z,6.51
2023-01-10T16:56:30.181Z,6.60
2023-01-10T16:58:59.159Z,6.88
2023-01-10T17:01:31.237Z,6.78
2023-01-10T17:04:00.953Z,6.66
2023-01-10T17:06:30.601Z,6.86
2023-01-10T17:08:59.186Z,6.83
2023-01-10T17:11:29.106Z,6.71
2023-01-10T17:13:57.299Z,6.72
2023-01-10T17:16:28.898Z,6.55
2023-01-10T17:18:57.519Z,6.66
2023-01-10T17:21:25.869Z,6.47
2023-01-10T17:23:55.522Z,6.30
2023-01-10T17:26:23.938Z,6.56
2023-01-10T17:28:52.076Z,6.14
2023-01-10T17:31:20.520Z,6.20
2023-01-10T17:33:50.506Z,6.28
2023-01-10T17:36:19.591Z,6.27
2023-01-10T17:38:48.190Z,6.07
2023-01-10T17:41:17.534Z,6.16
2023-01-10T17:43:45.629Z,6.17
2023-01-10T17:46:14.025Z,6.00
2023-01-10T17:48:42.408Z,5.88
2023-01-10T17:51:11.842Z,5.72
2023-01-10T17:53:40.216Z,5.69
2023-01-10T17:56:09.237Z,5.57
2023-01-10T17:58:38.841Z,5.48
2023-01-10T18:01:06.933Z,5.38
2023-01-10T18:03:35.275Z,5.37
2023-01-10T18:06:05.542Z,5.47
2023-01-10T18:08:33.830Z,5.52
2023-01-10T18:11:02.257Z,5.43
2023-01-10T18:13:31.623Z,5.37
2023-01-10T18:16:01.780Z,5.35
2023-01-10T18:18:30.573Z,5.21
2023-01-10T18:21:02.081Z,5.38
2023-01-10T18:23:31.877Z,5.37
2023-01-10T18:26:01.866Z,5.45
2023-01-10T18:28:40.668Z,5.32
2023-01-10T18:31:13.327Z,5.46
2023-01-10T18:33:41.939Z,5.56
2023-01-10T18:36:14.756Z,5.59
2023-01-10T18:38:43.859Z,5.55
2023-01-10T18:41:11.907Z,5.61
2023-01-10T18:43:40.988Z,5.48
2023-01-10T18:46:13.996Z,5.60
2023-01-10T18:48:42.355Z,5.33
2023-01-10T18:51:14.038Z,5.33
2023-01-10T18:53:43.212Z,5.36
2023-01-10T18:56:12.348Z,5.37
2023-01-10T18:58:42.850Z,5.20
2023-01-10T19:01:14.705Z,5.25
2023-01-10T19:03:44.066Z,5.11
2023-01-10T19:06:16.016Z,5.13
2023-01-10T19:08:45.045Z,4.99
2023-01-10T19:11:16.266Z,4.97
2023-01-10T19:13:45.674Z,4.94
2023-01-10T19:16:17.448Z,4.92
2023-01-10T19:18:49.513Z,4.89
2023-01-10T19:21:17.505Z,4.87
2023-01-10T19:23:47.926Z,4.96
2023-01-10T19:26:16.554Z,5.10
2023-01-10T19:28:45.638Z,5.01
2023-01-10T19:31:17.929Z,4.96
2023-01-10T19:33:48.057Z,4.89
2023-01-10T19:36:16.875Z,4.69
2023-01-10T19:38:45.352Z,4.88
2023-01-10T19:41:14.118Z,4.84
2023-01-10T19:43:42.370Z,4.88
2023-01-10T19:46:14.112Z,4.86
2023-01-10T19:48:43.529Z,4.94
2023-01-10T19:51:13.593Z,4.77
2023-01-10T19:53:45.678Z,4.77
2023-01-10T19:56:18.401Z,4.86
2023-01-10T19:58:47.181Z,4.84
2023-01-10T20:01:16.782Z,4.67
2023-01-10T20:03:47.671Z,4.81
2023-01-10T20:06:18.739Z,4.87
2023-01-10T20:08:48.721Z,4.77
2023-01-10T20:11:18.766Z,4.74
2023-01-10T20:13:49.614Z,4.65
2023-01-10T20:16:21.071Z,4.71
2023-01-10T20:18:53.282Z,4.90
2023-01-10T20:21:22.248Z,4.88
2023-01-10T20:23:51.360Z,4.82
2023-01-10T20:26:22.034Z,4.78
2023-01-10T20:28:50.966Z,4.70
2023-01-10T20:31:23.915Z,4.64
2023-01-10T20:33:54.054Z,4.70
2023-01-10T20:36:24.232Z,4.90
2023-01-10T20:38:52.900Z,4.81
2023-01-10T20:41:23.170Z,4.86
2023-01-10T20:43:51.688Z,4.71
2023-01-10T20:46:22.246Z,4.81
2023-01-10T20:48:50.824Z,4.74
2023-01-10T20:51:22.397Z,4.76
2023-01-10T20:53:51.445Z,4.79
2023-01-10T20:56:21.829Z,4.98
2023-01-10T20:58:50.781Z,4.89
2023-01-10T21:01:33.199Z,4.98
2023-01-10T21:04:03.555Z,4.94
2023-01-10T21:06:33.739Z,5.01
2023-01-10T21:09:01.928Z,4.99
2023-01-10T21:11:30.981Z,4.69
2023-01-10T21:13:59.308Z,5.00
2023-01-10T21:16:27.859Z,5.00
2023-01-10T21:18:56.180Z,4.96
2023-01-10T21:21:25.039Z,5.00
2023-01-10T21:23:55.723Z,5.05
2023-01-10T21:26:24.661Z,4.74
2023-01-10T21:28:55.746Z,4.89
2023-01-10T21:31:23.770Z,4.92
2023-01-10T21:33:52.269Z,4.92
2023-01-10T21:36:20.955Z,4.80
2023-01-10T21:38:49.537Z,4.75
2023-01-10T21:41:41.665Z,4.80
2023-01-10T21:44:10.211Z,4.81
2023-01-10T21:46:38.657Z,4.65
2023-01-10T21:49:06.867Z,4.68
2023-01-10T21:51:35.358Z,4.48
2023-01-10T21:54:03.296Z,4.52
2023-01-10T21:56:33.111Z,4.39
2023-01-10T21:59:00.942Z,4.60
2023-01-10T22:01:29.209Z,4.44
2023-01-10T22:03:57.171Z,4.52
2023-01-10T22:06:25.142Z,4.41
2023-01-10T22:08:54.649Z,4.43
2023-01-10T22:11:22.769Z,4.42
2023-01-10T22:13:53.294Z,4.42
2023-01-10T22:16:21.231Z,4.44
2023-01-10T22:18:49.202Z,4.40
2023-01-10T22:21:19.995Z,4.32
2023-01-10T22:23:47.746Z,4.38
2023-01-10T22:26:17.595Z,4.26
2023-01-10T22:28:45.318Z,4.23
2023-01-10T22:31:15.073Z,4.36
2023-01-10T22:33:43.060Z,4.35
2023-01-10T22:36:15.551Z,4.31
2023-01-10T22:38:43.620Z,4.07
2023-01-10T22:41:13.757Z,4.10
2023-01-10T22:43:41.824Z,4.22
2023-01-10T22:46:11.195Z,4.04
2023-01-10T22:48:40.499Z,4.05
2023-01-10T22:51:09.021Z,4.14
2023-01-10T22:53:36.862Z,4.46
2023-01-10T22:56:07.025Z,4.59
2023-01-10T22:58:34.983Z,4.64
2023-01-10T23:01:08.824Z,4.58
2023-01-10T23:03:37.379Z,4.72
2023-01-10T23:06:07.702Z,4.83
2023-01-10T23:08:47.249Z,4.92
2023-01-10T23:11:22.558Z,4.95
2023-01-10T23:14:12.242Z,4.70
2023-01-10T23:16:55.558Z,4.75
2023-01-10T23:19:24.164Z,5.00
2023-01-10T23:21:56.732Z,5.00
2023-01-10T23:24:27.578Z,5.11
2023-01-10T23:26:59.528Z,5.13
2023-01-10T23:29:33.209Z,4.84
2023-01-10T23:32:01.481Z,4.98
2023-01-10T23:34:29.503Z,5.05
2023-01-10T23:36:59.026Z,5.07
2023-01-10T23:39:26.802Z,4.84
2023-01-10T23:41:54.941Z,5.03
2023-01-10T23:44:22.965Z,4.99
2023-01-10T23:46:50.888Z,5.15
2023-01-10T23:49:18.683Z,4.89
2023-01-10T23:51:46.762Z,5.03
2023-01-10T23:54:17.304Z,5.25
2023-01-10T23:56:45.605Z,5.18
2023-01-10T23:59:13.421Z,5.28
